sensor_id;sensor_type;location;lat;lon;timestamp;pressure;altitude;pressure_sealevel;temperature
79756;BMP280;69239;50.678;12.280;2024-02-14T00:01:50;97933.19;;;4.02
79756;BMP280;69239;50.678;12.280;2024-02-14T00:04:16;97926.41;;;4.01
79756;BMP280;69239;50.678;12.280;2024-02-14T00:06:41;97929.25;;;4.00
79756;BMP280;69239;50.678;12.280;2024-02-14T00:09:06;97933.19;;;4.02
79756;BMP280;69239;50.678;12.280;2024-02-14T00:11:32;97938.41;;;4.02
79756;BMP280;69239;50.678;12.280;2024-02-14T00:13:58;97934.75;;;4.03
79756;BMP280;69239;50.678;12.280;2024-02-14T00:16:25;97935.25;;;4.00
79756;BMP280;69239;50.678;12.280;2024-02-14T00:18:50;97935.81;;;4.02
79756;BMP280;69239;50.678;12.280;2024-02-14T00:21:16;97943.63;;;4.02
79756;BMP280;69239;50.678;12.280;2024-02-14T00:23:41;97923.25;;;3.99
79756;BMP280;69239;50.678;12.280;2024-02-14T00:26:07;97931.06;;;3.99
79756;BMP280;69239;50.678;12.280;2024-02-14T00:28:32;97930.81;;;4.01
79756;BMP280;69239;50.678;12.280;2024-02-14T00:30:58;97931.06;;;3.99
79756;BMP280;69239;50.678;12.280;2024-02-14T00:33:23;97924.56;;;3.96
79756;BMP280;69239;50.678;12.280;2024-02-14T00:35:49;97939.97;;;4.03
79756;BMP280;69239;50.678;12.280;2024-02-14T00:38:14;97932.16;;;4.03
79756;BMP280;69239;50.678;12.280;2024-02-14T00:40:40;97932.69;;;4.05
79756;BMP280;69239;50.678;12.280;2024-02-14T00:43:05;97932.69;;;4.05
79756;BMP280;69239;50.678;12.280;2024-02-14T00:45:30;97927.75;;;4.04
79756;BMP280;69239;50.678;12.280;2024-02-14T00:47:56;97945.19;;;4.08
79756;BMP280;69239;50.678;12.280;2024-02-14T00:50:21;97946.53;;;4.11
79756;BMP280;69239;50.678;12.280;2024-02-14T00:52:47;97935.34;;;4.10
79756;BMP280;69239;50.678;12.280;2024-02-14T00:55:12;97935.88;;;4.12
79756;BMP280;69239;50.678;12.280;2024-02-14T00:57:37;97940.56;;;4.15
79756;BMP280;69239;50.678;12.280;2024-02-14T01:00:04;97935.13;;;4.17
79756;BMP280;69239;50.678;12.280;2024-02-14T01:02:31;97936.16;;;4.21
79756;BMP280;69239;50.678;12.280;2024-02-14T01:04:56;97939.31;;;4.23
79756;BMP280;69239;50.678;12.280;2024-02-14T01:07:22;97927.28;;;4.22
79756;BMP280;69239;50.678;12.280;2024-02-14T01:09:47;97933.28;;;4.22
79756;BMP280;69239;50.678;12.280;2024-02-14T01:12:13;97930.72;;;4.28
79756;BMP280;69239;50.678;12.280;2024-02-14T01:14:38;97934.38;;;4.27
79756;BMP280;69239;50.678;12.280;2024-02-14T01:17:04;97931.81;;;4.32
79756;BMP280;69239;50.678;12.280;2024-02-14T01:19:29;97922.16;;;4.32
79756;BMP280;69239;50.678;12.280;2024-02-14T01:21:58;97913.81;;;4.30
79756;BMP280;69239;50.678;12.280;2024-02-14T01:24:23;97923.47;;;4.35
79756;BMP280;69239;50.678;12.280;2024-02-14T01:26:52;97917.22;;;4.36
79756;BMP280;69239;50.678;12.280;2024-02-14T01:29:20;97923.22;;;4.36
79756;BMP280;69239;50.678;12.280;2024-02-14T01:31:45;97916.72;;;4.39
79756;BMP280;69239;50.678;12.280;2024-02-14T01:34:10;97915.66;;;4.40
79756;BMP280;69239;50.678;12.280;2024-02-14T01:36:36;97914.38;;;4.42
79756;BMP280;69239;50.678;12.280;2024-02-14T01:39:04;97913.06;;;4.40
79756;BMP280;69239;50.678;12.280;2024-02-14T01:41:31;97915.94;;;4.43
79756;BMP280;69239;50.678;12.280;2024-02-14T01:43:57;97910.47;;;4.45
79756;BMP280;69239;50.678;12.280;2024-02-14T01:46:24;97907.63;;;4.46
79756;BMP280;69239;50.678;12.280;2024-02-14T01:48:49;97912.56;;;4.48
79756;BMP280;69239;50.678;12.280;2024-02-14T01:51:16;97904.75;;;4.48
79756;BMP280;69239;50.678;12.280;2024-02-14T01:53:43;97908.41;;;4.47
79756;BMP280;69239;50.678;12.280;2024-02-14T01:56:08;97909.47;;;4.51
79756;BMP280;69239;50.678;12.280;2024-02-14T01:58:34;97904.00;;;4.52
79756;BMP280;69239;50.678;12.280;2024-02-14T02:01:00;97902.19;;;4.53
79756;BMP280;69239;50.678;12.280;2024-02-14T02:03:26;97901.91;;;4.54
79756;BMP280;69239;50.678;12.280;2024-02-14T02:05:52;97898.28;;;4.56
79756;BMP280;69239;50.678;12.280;2024-02-14T02:08:19;97893.31;;;4.54
79756;BMP280;69239;50.678;12.280;2024-02-14T02:10:44;97893.56;;;4.58
79756;BMP280;69239;50.678;12.280;2024-02-14T02:13:10;97888.63;;;4.56
79756;BMP280;69239;50.678;12.280;2024-02-14T02:15:35;97893.84;;;4.61
79756;BMP280;69239;50.678;12.280;2024-02-14T02:18:03;97888.63;;;4.61
79756;BMP280;69239;50.678;12.280;2024-02-14T02:20:31;97888.63;;;4.61
79756;BMP280;69239;50.678;12.280;2024-02-14T02:22:58;97893.59;;;4.63
79756;BMP280;69239;50.678;12.280;2024-02-14T02:25:23;97894.38;;;4.63
79756;BMP280;69239;50.678;12.280;2024-02-14T02:27:51;97899.31;;;4.65
79756;BMP280;69239;50.678;12.280;2024-02-14T02:30:16;97883.41;;;4.61
79756;BMP280;69239;50.678;12.280;2024-02-14T02:32:42;97892.84;;;4.67
79756;BMP280;69239;50.678;12.280;2024-02-14T02:35:08;97895.97;;;4.69
79756;BMP280;69239;50.678;12.280;2024-02-14T02:37:35;97892.31;;;4.70
79756;BMP280;69239;50.678;12.280;2024-02-14T02:40:00;97887.88;;;4.71
79756;BMP280;69239;50.678;12.280;2024-02-14T02:42:25;97883.44;;;4.71
79756;BMP280;69239;50.678;12.280;2024-02-14T02:44:51;97884.78;;;4.74
79756;BMP280;69239;50.678;12.280;2024-02-14T02:47:16;97878.78;;;4.73
79756;BMP280;69239;50.678;12.280;2024-02-14T02:49:45;97880.84;;;4.76
79756;BMP280;69239;50.678;12.280;2024-02-14T02:52:11;97881.34;;;4.78
79756;BMP280;69239;50.678;12.280;2024-02-14T02:54:37;97884.78;;;4.79
79756;BMP280;69239;50.678;12.280;2024-02-14T02:57:06;97871.47;;;4.80
79756;BMP280;69239;50.678;12.280;2024-02-14T02:59:32;97867.78;;;4.76
79756;BMP280;69239;50.678;12.280;2024-02-14T03:01:57;97879.03;;;4.82
79756;BMP280;69239;50.678;12.280;2024-02-14T03:04:24;97873.56;;;4.83
79756;BMP280;69239;50.678;12.280;2024-02-14T03:06:49;97866.25;;;4.86
79756;BMP280;69239;50.678;12.280;2024-02-14T03:09:15;97870.97;;;4.89
79756;BMP280;69239;50.678;12.280;2024-02-14T03:11:40;97873.31;;;4.90
79756;BMP280;69239;50.678;12.280;2024-02-14T03:14:06;97868.38;;;4.89
79756;BMP280;69239;50.678;12.280;2024-02-14T03:16:33;97861.06;;;4.91
79756;BMP280;69239;50.678;12.280;2024-02-14T03:18:58;97862.38;;;4.93
79756;BMP280;69239;50.678;12.280;2024-02-14T03:21:24;97859.22;;;4.96
79756;BMP280;69239;50.678;12.280;2024-02-14T03:23:49;97860.53;;;4.99
79756;BMP280;69239;50.678;12.280;2024-02-14T03:26:14;97862.63;;;5.02
79756;BMP280;69239;50.678;12.280;2024-02-14T03:28:40;97860.03;;;5.02
79756;BMP280;69239;50.678;12.280;2024-02-14T03:31:05;97860.53;;;5.04
79756;BMP280;69239;50.678;12.280;2024-02-14T03:33:30;97852.47;;;5.05
79756;BMP280;69239;50.678;12.280;2024-02-14T03:35:56;97848.03;;;5.06
79756;BMP280;69239;50.678;12.280;2024-02-14T03:38:27;97845.41;;;5.06
79756;BMP280;69239;50.678;12.280;2024-02-14T03:40:53;97849.09;;;5.10
79756;BMP280;69239;50.678;12.280;2024-02-14T03:43:19;97846.97;;;5.12
79756;BMP280;69239;50.678;12.280;2024-02-14T03:45:45;97849.88;;;5.10
79756;BMP280;69239;50.678;12.280;2024-02-14T03:48:11;97846.97;;;5.12
79756;BMP280;69239;50.678;12.280;2024-02-14T03:50:40;97849.06;;;5.15
79756;BMP280;69239;50.678;12.280;2024-02-14T03:53:05;97852.19;;;5.17
79756;BMP280;69239;50.678;12.280;2024-02-14T03:55:31;97850.38;;;5.18
79756;BMP280;69239;50.678;12.280;2024-02-14T03:57:57;97835.25;;;5.15
79756;BMP280;69239;50.678;12.280;2024-02-14T04:00:22;97843.06;;;5.20
79756;BMP280;69239;50.678;12.280;2024-02-14T04:02:48;97833.94;;;5.22
79756;BMP280;69239;50.678;12.280;2024-02-14T04:05:14;97841.50;;;5.24
79756;BMP280;69239;50.678;12.280;2024-02-14T04:07:40;97842.81;;;5.26
79756;BMP280;69239;50.678;12.280;2024-02-14T04:10:06;97843.59;;;5.27
79756;BMP280;69239;50.678;12.280;2024-02-14T04:12:31;97842.81;;;5.26
79756;BMP280;69239;50.678;12.280;2024-02-14T04:14:57;97842.28;;;5.29
79756;BMP280;69239;50.678;12.280;2024-02-14T04:17:22;97843.84;;;5.30
79756;BMP280;69239;50.678;12.280;2024-02-14T04:19:49;97834.97;;;5.31
79756;BMP280;69239;50.678;12.280;2024-02-14T04:22:15;97835.75;;;5.32
79756;BMP280;69239;50.678;12.280;2024-02-14T04:24:41;97843.59;;;5.37
79756;BMP280;69239;50.678;12.280;2024-02-14T04:27:07;97844.38;;;5.37
79756;BMP280;69239;50.678;12.280;2024-02-14T04:29:32;97842.53;;;5.43
79756;BMP280;69239;50.678;12.280;2024-02-14T04:31:59;97836.28;;;5.44
79756;BMP280;69239;50.678;12.280;2024-02-14T04:34:25;97833.88;;;5.48
79756;BMP280;69239;50.678;12.280;2024-02-14T04:36:50;97827.63;;;5.49
79756;BMP280;69239;50.678;12.280;2024-02-14T04:39:17;97826.06;;;5.53
79756;BMP280;69239;50.678;12.280;2024-02-14T04:41:42;97825.53;;;5.56
79756;BMP280;69239;50.678;12.280;2024-02-14T04:44:07;97822.69;;;5.57
79756;BMP280;69239;50.678;12.280;2024-02-14T04:46:33;97808.28;;;5.65
79756;BMP280;69239;50.678;12.280;2024-02-14T04:49:00;97819.75;;;5.69
79756;BMP280;69239;50.678;12.280;2024-02-14T04:51:29;97799.91;;;5.73
79756;BMP280;69239;50.678;12.280;2024-02-14T04:53:54;97794.09;;;5.81
79756;BMP280;69239;50.678;12.280;2024-02-14T04:56:23;97797.22;;;5.88
79756;BMP280;69239;50.678;12.280;2024-02-14T04:58:49;97790.91;;;5.94
79756;BMP280;69239;50.678;12.280;2024-02-14T05:01:14;97795.59;;;6.03
79756;BMP280;69239;50.678;12.280;2024-02-14T05:03:40;97777.28;;;6.08
79756;BMP280;69239;50.678;12.280;2024-02-14T05:06:06;97780.38;;;6.15
79756;BMP280;69239;50.678;12.280;2024-02-14T05:08:31;97778.75;;;6.19
79756;BMP280;69239;50.678;12.280;2024-02-14T05:10:57;97776.69;;;6.21
79756;BMP280;69239;50.678;12.280;2024-02-14T05:13:22;97774.84;;;6.21
79756;BMP280;69239;50.678;12.280;2024-02-14T05:15:48;97782.41;;;6.28
79756;BMP280;69239;50.678;12.280;2024-02-14T05:18:15;97774.56;;;6.28
79756;BMP280;69239;50.678;12.280;2024-02-14T05:20:41;97768.28;;;6.29
79756;BMP280;69239;50.678;12.280;2024-02-14T05:23:06;97777.09;;;6.33
79756;BMP280;69239;50.678;12.280;2024-02-14T05:25:31;97769.56;;;6.31
79756;BMP280;69239;50.678;12.280;2024-02-14T05:27:58;97779.47;;;6.35
79756;BMP280;69239;50.678;12.280;2024-02-14T05:30:23;97789.16;;;6.34
79756;BMP280;69239;50.678;12.280;2024-02-14T05:32:50;97784.44;;;6.36
79756;BMP280;69239;50.678;12.280;2024-02-14T05:35:17;97791.72;;;6.39
79756;BMP280;69239;50.678;12.280;2024-02-14T05:37:43;97791.72;;;6.39
79756;BMP280;69239;50.678;12.280;2024-02-14T05:40:09;97799.06;;;6.37
79756;BMP280;69239;50.678;12.280;2024-02-14T05:42:34;97802.97;;;6.40
79756;BMP280;69239;50.678;12.280;2024-02-14T05:44:59;97810.03;;;6.39
79756;BMP280;69239;50.678;12.280;2024-02-14T05:47:25;97812.66;;;6.39
79756;BMP280;69239;50.678;12.280;2024-02-14T05:49:51;97803.25;;;6.38
79756;BMP280;69239;50.678;12.280;2024-02-14T05:52:16;97803.25;;;6.38
79756;BMP280;69239;50.678;12.280;2024-02-14T05:54:43;97792.50;;;6.40
79756;BMP280;69239;50.678;12.280;2024-02-14T05:57:08;97800.63;;;6.38
79756;BMP280;69239;50.678;12.280;2024-02-14T05:59:34;97790.94;;;6.39
79756;BMP280;69239;50.678;12.280;2024-02-14T06:01:59;97786.50;;;6.39
79756;BMP280;69239;50.678;12.280;2024-02-14T06:04:28;97776.59;;;6.36
79756;BMP280;69239;50.678;12.280;2024-02-14T06:06:53;97783.88;;;6.39
79756;BMP280;69239;50.678;12.280;2024-02-14T06:09:18;97768.75;;;6.36
79756;BMP280;69239;50.678;12.280;2024-02-14T06:11:44;97776.81;;;6.40
79756;BMP280;69239;50.678;12.280;2024-02-14T06:14:09;97768.19;;;6.39
79756;BMP280;69239;50.678;12.280;2024-02-14T06:16:35;97766.34;;;6.40
79756;BMP280;69239;50.678;12.280;2024-02-14T06:19:01;97761.91;;;6.40
79756;BMP280;69239;50.678;12.280;2024-02-14T06:21:29;97775.53;;;6.42
79756;BMP280;69239;50.678;12.280;2024-02-14T06:23:55;97771.34;;;6.41
79756;BMP280;69239;50.678;12.280;2024-02-14T06:26:21;97779.19;;;6.41
79756;BMP280;69239;50.678;12.280;2024-02-14T06:28:46;97769.75;;;6.40
79756;BMP280;69239;50.678;12.280;2024-02-14T06:31:11;97767.13;;;6.40
79756;BMP280;69239;50.678;12.280;2024-02-14T06:33:37;97779.19;;;6.41
79756;BMP280;69239;50.678;12.280;2024-02-14T06:36:03;97784.41;;;6.41
79756;BMP280;69239;50.678;12.280;2024-02-14T06:38:28;97778.16;;;6.37
79756;BMP280;69239;50.678;12.280;2024-02-14T06:40:53;97782.03;;;6.40
79756;BMP280;69239;50.678;12.280;2024-02-14T06:43:19;97773.69;;;6.38
79756;BMP280;69239;50.678;12.280;2024-02-14T06:45:45;97789.13;;;6.39
79756;BMP280;69239;50.678;12.280;2024-02-14T06:48:10;97784.44;;;6.36
79756;BMP280;69239;50.678;12.280;2024-02-14T06:50:36;97780.50;;;6.39
79756;BMP280;69239;50.678;12.280;2024-02-14T06:53:01;97793.28;;;6.40
79756;BMP280;69239;50.678;12.280;2024-02-14T06:55:27;97789.66;;;6.41
79756;BMP280;69239;50.678;12.280;2024-02-14T06:57:53;97784.41;;;6.41
79756;BMP280;69239;50.678;12.280;2024-02-14T07:00:19;97789.09;;;6.44
79756;BMP280;69239;50.678;12.280;2024-02-14T07:02:45;97778.91;;;6.43
79756;BMP280;69239;50.678;12.280;2024-02-14T07:05:13;97770.22;;;6.47
79756;BMP280;69239;50.678;12.280;2024-02-14T07:07:40;97774.41;;;6.48
79756;BMP280;69239;50.678;12.280;2024-02-14T07:10:07;97789.56;;;6.51
79756;BMP280;69239;50.678;12.280;2024-02-14T07:12:33;97786.34;;;6.59
79756;BMP280;69239;50.678;12.280;2024-02-14T07:15:01;97779.00;;;6.61
79756;BMP280;69239;50.678;12.280;2024-02-14T07:17:29;97768.81;;;6.65
79756;BMP280;69239;50.678;12.280;2024-02-14T07:19:54;97763.78;;;6.69
79756;BMP280;69239;50.678;12.280;2024-02-14T07:22:20;97764.81;;;6.73
79756;BMP280;69239;50.678;12.280;2024-02-14T07:24:45;97771.06;;;6.77
79756;BMP280;69239;50.678;12.280;2024-02-14T07:27:14;97779.13;;;6.85
79756;BMP280;69239;50.678;12.280;2024-02-14T07:29:40;97778.22;;;6.95
79756;BMP280;69239;50.678;12.280;2024-02-14T07:32:06;97772.13;;;7.05
79756;BMP280;69239;50.678;12.280;2024-02-14T07:34:34;97764.66;;;7.17
79756;BMP280;69239;50.678;12.280;2024-02-14T07:36:59;97773.72;;;7.30
79756;BMP280;69239;50.678;12.280;2024-02-14T07:39:25;97768.13;;;7.36
79756;BMP280;69239;50.678;12.280;2024-02-14T07:41:50;97774.06;;;7.47
79756;BMP280;69239;50.678;12.280;2024-02-14T07:44:16;97762.44;;;7.77
79756;BMP280;69239;50.678;12.280;2024-02-14T07:46:42;97759.69;;;8.06
79756;BMP280;69239;50.678;12.280;2024-02-14T07:49:07;97770.63;;;8.64
79756;BMP280;69239;50.678;12.280;2024-02-14T07:51:34;97761.75;;;9.48
79756;BMP280;69239;50.678;12.280;2024-02-14T07:54:02;97763.34;;;10.21
79756;BMP280;69239;50.678;12.280;2024-02-14T07:56:29;97767.97;;;11.00
79756;BMP280;69239;50.678;12.280;2024-02-14T07:58:54;97770.31;;;12.18
79756;BMP280;69239;50.678;12.280;2024-02-14T08:01:20;97762.47;;;13.24
79756;BMP280;69239;50.678;12.280;2024-02-14T08:03:45;97767.66;;;13.83
79756;BMP280;69239;50.678;12.280;2024-02-14T08:06:11;97762.50;;;14.19
79756;BMP280;69239;50.678;12.280;2024-02-14T08:08:37;97774.22;;;14.88
79756;BMP280;69239;50.678;12.280;2024-02-14T08:11:03;97769.66;;;15.93
79756;BMP280;69239;50.678;12.280;2024-02-14T08:13:28;97757.72;;;16.31
79756;BMP280;69239;50.678;12.280;2024-02-14T08:15:54;97759.75;;;15.90
79756;BMP280;69239;50.678;12.280;2024-02-14T08:18:19;97772.31;;;15.93
79756;BMP280;69239;50.678;12.280;2024-02-14T08:20:45;97780.28;;;16.52
79756;BMP280;69239;50.678;12.280;2024-02-14T08:23:10;97781.94;;;17.08
79756;BMP280;69239;50.678;12.280;2024-02-14T08:25:36;97772.31;;;17.19
79756;BMP280;69239;50.678;12.280;2024-02-14T08:28:01;97784.28;;;16.93
79756;BMP280;69239;50.678;12.280;2024-02-14T08:30:26;97790.66;;;16.26
79756;BMP280;69239;50.678;12.280;2024-02-14T08:32:52;97783.94;;;15.61
79756;BMP280;69239;50.678;12.280;2024-02-14T08:35:18;97797.84;;;15.17
79756;BMP280;69239;50.678;12.280;2024-02-14T08:37:43;97787.78;;;14.86
79756;BMP280;69239;50.678;12.280;2024-02-14T08:40:09;97786.88;;;14.58
79756;BMP280;69239;50.678;12.280;2024-02-14T08:42:37;97789.44;;;14.22
79756;BMP280;69239;50.678;12.280;2024-02-14T08:45:02;97799.31;;;14.00
79756;BMP280;69239;50.678;12.280;2024-02-14T08:47:28;97811.44;;;13.80
79756;BMP280;69239;50.678;12.280;2024-02-14T08:49:54;97816.25;;;13.78
79756;BMP280;69239;50.678;12.280;2024-02-14T08:52:20;97822.53;;;13.74
79756;BMP280;69239;50.678;12.280;2024-02-14T08:54:46;97823.06;;;13.38
79756;BMP280;69239;50.678;12.280;2024-02-14T08:57:12;97822.63;;;12.98
79756;BMP280;69239;50.678;12.280;2024-02-14T08:59:37;97818.84;;;12.61
79756;BMP280;69239;50.678;12.280;2024-02-14T09:02:03;97813.94;;;12.33
79756;BMP280;69239;50.678;12.280;2024-02-14T09:04:28;97824.94;;;12.09
79756;BMP280;69239;50.678;12.280;2024-02-14T09:06:54;97810.38;;;11.86
79756;BMP280;69239;50.678;12.280;2024-02-14T09:09:19;97812.47;;;11.67
79756;BMP280;69239;50.678;12.280;2024-02-14T09:11:45;97820.50;;;11.44
79756;BMP280;69239;50.678;12.280;2024-02-14T09:14:14;97815.19;;;11.27
79756;BMP280;69239;50.678;12.280;2024-02-14T09:16:40;97829.81;;;11.11
79756;BMP280;69239;50.678;12.280;2024-02-14T09:19:05;97837.03;;;10.97
79756;BMP280;69239;50.678;12.280;2024-02-14T09:21:33;97840.09;;;10.90
79756;BMP280;69239;50.678;12.280;2024-02-14T09:24:01;97819.63;;;10.78
79756;BMP280;69239;50.678;12.280;2024-02-14T09:26:26;97837.19;;;10.69
79756;BMP280;69239;50.678;12.280;2024-02-14T09:28:52;97830.31;;;10.59
79756;BMP280;69239;50.678;12.280;2024-02-14T09:31:20;97840.69;;;10.56
79756;BMP280;69239;50.678;12.280;2024-02-14T09:33:48;97823.16;;;10.51
79756;BMP280;69239;50.678;12.280;2024-02-14T09:36:15;97834.09;;;10.45
79756;BMP280;69239;50.678;12.280;2024-02-14T09:38:41;97831.56;;;10.40
79756;BMP280;69239;50.678;12.280;2024-02-14T09:41:15;97856.81;;;10.41
79756;BMP280;69239;50.678;12.280;2024-02-14T09:43:44;97862.56;;;10.43
79756;BMP280;69239;50.678;12.280;2024-02-14T09:46:13;97849.88;;;10.45
79756;BMP280;69239;50.678;12.280;2024-02-14T09:48:40;97849.97;;;10.40
79756;BMP280;69239;50.678;12.280;2024-02-14T09:51:07;97860.03;;;10.38
79756;BMP280;69239;50.678;12.280;2024-02-14T09:53:32;97842.03;;;10.31
79756;BMP280;69239;50.678;12.280;2024-02-14T09:55:58;97856.84;;;10.27
79756;BMP280;69239;50.678;12.280;2024-02-14T09:58:25;97851.41;;;10.23
79756;BMP280;69239;50.678;12.280;2024-02-14T10:00:52;97852.47;;;10.22
79756;BMP280;69239;50.678;12.280;2024-02-14T10:03:17;97863.59;;;10.19
79756;BMP280;69239;50.678;12.280;2024-02-14T10:05:43;97858.44;;;10.14
79756;BMP280;69239;50.678;12.280;2024-02-14T10:08:08;97855.63;;;10.11
79756;BMP280;69239;50.678;12.280;2024-02-14T10:10:35;97853.59;;;10.08
79756;BMP280;69239;50.678;12.280;2024-02-14T10:13:04;97851.84;;;10.03
79756;BMP280;69239;50.678;12.280;2024-02-14T10:15:30;97855.63;;;9.97
79756;BMP280;69239;50.678;12.280;2024-02-14T10:17:57;97852.06;;;9.93
79756;BMP280;69239;50.678;12.280;2024-02-14T10:20:23;97858.66;;;9.90
79756;BMP280;69239;50.678;12.280;2024-02-14T10:22:48;97854.97;;;9.91
79756;BMP280;69239;50.678;12.280;2024-02-14T10:25:14;97858.97;;;9.89
79756;BMP280;69239;50.678;12.280;2024-02-14T10:27:40;97858.78;;;9.85
79756;BMP280;69239;50.678;12.280;2024-02-14T10:30:07;97855.97;;;9.82
79756;BMP280;69239;50.678;12.280;2024-02-14T10:32:36;97856.56;;;9.79
79756;BMP280;69239;50.678;12.280;2024-02-14T10:35:04;97843.09;;;9.80
79756;BMP280;69239;50.678;12.280;2024-02-14T10:37:34;97851.06;;;9.89
79756;BMP280;69239;50.678;12.280;2024-02-14T10:40:01;97845.22;;;9.92
79756;BMP280;69239;50.678;12.280;2024-02-14T10:42:27;97854.69;;;9.93
79756;BMP280;69239;50.678;12.280;2024-02-14T10:44:54;97869.09;;;9.95
79756;BMP280;69239;50.678;12.280;2024-02-14T10:47:20;97858.25;;;9.97
79756;BMP280;69239;50.678;12.280;2024-02-14T10:49:50;97853.50;;;9.99
79756;BMP280;69239;50.678;12.280;2024-02-14T10:52:17;97860.03;;;10.02
79756;BMP280;69239;50.678;12.280;2024-02-14T10:54:48;97843.19;;;10.03
79756;BMP280;69239;50.678;12.280;2024-02-14T10:57:19;97850.84;;;9.99
79756;BMP280;69239;50.678;12.280;2024-02-14T10:59:47;97860.91;;;9.97
79756;BMP280;69239;50.678;12.280;2024-02-14T11:02:14;97847.97;;;10.01
79756;BMP280;69239;50.678;12.280;2024-02-14T11:04:40;97851.84;;;10.03
79756;BMP280;69239;50.678;12.280;2024-02-14T11:07:09;97844.94;;;10.07
79756;BMP280;69239;50.678;12.280;2024-02-14T11:09:38;97850.75;;;10.18
79756;BMP280;69239;50.678;12.280;2024-02-14T11:12:08;97851.88;;;10.25
79756;BMP280;69239;50.678;12.280;2024-02-14T11:14:34;97851.16;;;10.34
79756;BMP280;69239;50.678;12.280;2024-02-14T11:17:01;97841.94;;;10.36
79756;BMP280;69239;50.678;12.280;2024-02-14T11:19:33;97835.69;;;10.32
79756;BMP280;69239;50.678;12.280;2024-02-14T11:22:10;97854.03;;;10.37
79756;BMP280;69239;50.678;12.280;2024-02-14T11:24:37;97846.69;;;10.79
79756;BMP280;69239;50.678;12.280;2024-02-14T11:27:02;97827.72;;;11.70
79756;BMP280;69239;50.678;12.280;2024-02-14T11:29:32;97826.19;;;13.02
79756;BMP280;69239;50.678;12.280;2024-02-14T11:32:01;97827.13;;;14.06
79756;BMP280;69239;50.678;12.280;2024-02-14T11:34:28;97828.22;;;14.83
79756;BMP280;69239;50.678;12.280;2024-02-14T11:36:53;97827.22;;;15.12
79756;BMP280;69239;50.678;12.280;2024-02-14T11:39:20;97818.94;;;14.90
79756;BMP280;69239;50.678;12.280;2024-02-14T11:41:45;97819.13;;;14.60
79756;BMP280;69239;50.678;12.280;2024-02-14T11:44:11;97826.97;;;14.24
79756;BMP280;69239;50.678;12.280;2024-02-14T11:46:37;97826.22;;;14.02
79756;BMP280;69239;50.678;12.280;2024-02-14T11:49:04;97828.09;;;13.81
79756;BMP280;69239;50.678;12.280;2024-02-14T11:51:30;97829.47;;;13.58
79756;BMP280;69239;50.678;12.280;2024-02-14T11:53:59;97830.59;;;13.27
79756;BMP280;69239;50.678;12.280;2024-02-14T11:56:38;97828.25;;;12.96
79756;BMP280;69239;50.678;12.280;2024-02-14T11:59:05;97831.88;;;12.74
79756;BMP280;69239;50.678;12.280;2024-02-14T12:01:32;97830.03;;;12.57
79756;BMP280;69239;50.678;12.280;2024-02-14T12:03:59;97832.53;;;12.54
79756;BMP280;69239;50.678;12.280;2024-02-14T12:06:27;97834.69;;;12.52
79756;BMP280;69239;50.678;12.280;2024-02-14T12:08:54;97831.88;;;13.12
79756;BMP280;69239;50.678;12.280;2024-02-14T12:11:19;97831.69;;;13.56
79756;BMP280;69239;50.678;12.280;2024-02-14T12:13:49;97835.44;;;13.54
79756;BMP280;69239;50.678;12.280;2024-02-14T12:16:14;97837.38;;;13.66
79756;BMP280;69239;50.678;12.280;2024-02-14T12:18:41;97830.41;;;14.03
79756;BMP280;69239;50.678;12.280;2024-02-14T12:21:06;97837.56;;;13.82
79756;BMP280;69239;50.678;12.280;2024-02-14T12:23:35;97837.78;;;13.47
79756;BMP280;69239;50.678;12.280;2024-02-14T12:26:04;97828.31;;;13.17
79756;BMP280;69239;50.678;12.280;2024-02-14T12:28:31;97834.16;;;12.84
79756;BMP280;69239;50.678;12.280;2024-02-14T12:30:57;97838.91;;;12.62
79756;BMP280;69239;50.678;12.280;2024-02-14T12:33:26;97838.00;;;12.40
79756;BMP280;69239;50.678;12.280;2024-02-14T12:35:54;97842.97;;;12.25
79756;BMP280;69239;50.678;12.280;2024-02-14T12:38:21;97825.59;;;12.06
79756;BMP280;69239;50.678;12.280;2024-02-14T12:40:48;97832.72;;;11.97
79756;BMP280;69239;50.678;12.280;2024-02-14T12:43:14;97845.72;;;11.94
79756;BMP280;69239;50.678;12.280;2024-02-14T12:45:41;97842.66;;;11.92
79756;BMP280;69239;50.678;12.280;2024-02-14T12:48:08;97846.50;;;11.94
79756;BMP280;69239;50.678;12.280;2024-02-14T12:50:34;97837.38;;;12.00
79756;BMP280;69239;50.678;12.280;2024-02-14T12:53:01;97843.72;;;12.08
79756;BMP280;69239;50.678;12.280;2024-02-14T12:55:27;97838.63;;;12.11
79756;BMP280;69239;50.678;12.280;2024-02-14T12:57:57;97843.88;;;12.37
79756;BMP280;69239;50.678;12.280;2024-02-14T13:00:23;97849.94;;;12.64
79756;BMP280;69239;50.678;12.280;2024-02-14T13:13:02;97841.56;;;11.93
79756;BMP280;69239;50.678;12.280;2024-02-14T13:15:27;97842.00;;;11.86
79756;BMP280;69239;50.678;12.280;2024-02-14T13:17:53;97846.94;;;11.79
79756;BMP280;69239;50.678;12.280;2024-02-14T13:20:19;97844.44;;;11.74
79756;BMP280;69239;50.678;12.280;2024-02-14T13:22:44;97846.00;;;11.66
79756;BMP280;69239;50.678;12.280;2024-02-14T13:25:09;97842.44;;;11.62
79756;BMP280;69239;50.678;12.280;2024-02-14T13:27:35;97855.28;;;11.55
79756;BMP280;69239;50.678;12.280;2024-02-14T13:30:04;97838.19;;;11.44
79756;BMP280;69239;50.678;12.280;2024-02-14T13:32:30;97849.97;;;11.46
79756;BMP280;69239;50.678;12.280;2024-02-14T13:34:55;97838.81;;;11.49
79756;BMP280;69239;50.678;12.280;2024-02-14T13:37:21;97848.16;;;11.55
79756;BMP280;69239;50.678;12.280;2024-02-14T13:39:47;97854.34;;;11.59
79756;BMP280;69239;50.678;12.280;2024-02-14T13:42:13;97858.41;;;11.66
79756;BMP280;69239;50.678;12.280;2024-02-14T13:44:38;97847.41;;;11.72
79756;BMP280;69239;50.678;12.280;2024-02-14T13:47:04;97849.00;;;11.99
79756;BMP280;69239;50.678;12.280;2024-02-14T13:49:29;97853.22;;;12.17
79756;BMP280;69239;50.678;12.280;2024-02-14T13:51:54;97853.06;;;12.14
79756;BMP280;69239;50.678;12.280;2024-02-14T13:54:21;97847.47;;;12.07
79756;BMP280;69239;50.678;12.280;2024-02-14T13:56:49;97851.31;;;12.09
79756;BMP280;69239;50.678;12.280;2024-02-14T13:59:15;97853.84;;;12.14
79756;BMP280;69239;50.678;12.280;2024-02-14T14:01:41;97851.81;;;12.20
79756;BMP280;69239;50.678;12.280;2024-02-14T14:04:07;97863.16;;;12.20
79756;BMP280;69239;50.678;12.280;2024-02-14T14:06:32;97855.34;;;12.15
79756;BMP280;69239;50.678;12.280;2024-02-14T14:08:58;97859.41;;;12.04